Cape Texel — V7RC4 — position and weather

sailwx.info

Track history (hours):
 
Tides and Currents Weather Stations Pressure Air Temp Water Temp Dewpoint Dewpoint Depression Visibility Wind Speed Wind Dir Waves Ship Positions

Cape Texel

Last reported at 2017-Nov-06 02:27 UTC. Time now 2017-Nov-25 11:46 UTC.
Position N 25°39' W 079°31'.
Warning: this ship's position is 19 days out of date.

Length 228 m; draft 12.7 m.

Type: Tanker. MMSI: 538090383.

Date/timePositionNaut miles runAvg speedWind from/ knotsBaromVisibWave heightAir tempDewpointWater temp
2017-Nov-06 02:27N 25°39' W 079°31'910.7
2017-Nov-06 01:38N 25°48' W 079°30'1810.8
2017-Nov-05 23:57N 26°06' W 079°27'510.3
2017-Nov-05 23:30N 26°10' W 079°26'  
2017-Oct-28 01:35N 37°29' W 029°43'111.7
2017-Oct-28 01:30N 37°29' W 029°42'611.4
2017-Oct-28 01:00N 37°29' W 029°35'611.3
2017-Oct-28 00:30N 37°30' W 029°28'611.5
2017-Oct-28 00:00N 37°30' W 029°21'611.6
2017-Oct-27 23:30N 37°30' W 029°14'611.7
2017-Oct-27 23:00N 37°30' W 029°06'611.9
2017-Oct-27 22:31N 37°31' W 028°59'611.6
2017-Oct-27 22:00N 37°31' W 028°51'611.3
2017-Oct-27 21:30N 37°31' W 028°44'611.3
2017-Oct-27 21:00N 37°31' W 028°37'611.3
2017-Oct-27 20:31N 37°31' W 028°30'611.5
2017-Oct-27 20:00N 37°31' W 028°23'611.5
2017-Oct-27 19:30N 37°31' W 028°16'611.5
2017-Oct-27 19:00N 37°31' W 028°08'611.3
2017-Oct-27 18:30N 37°31' W 028°01'611.4
2017-Oct-27 18:00N 37°32' W 027°54'611.2
2017-Oct-27 17:30N 37°32' W 027°47'611.2
2017-Oct-27 17:00N 37°32' W 027°40'611.4
2017-Oct-27 16:30N 37°32' W 027°33'611.6
2017-Oct-27 16:00N 37°32' W 027°25'611.6
2017-Oct-27 15:29N 37°32' W 027°18'1411.5
2017-Oct-27 14:18N 37°32' W 027°00'311.2
2017-Oct-27 14:00N 37°32' W 026°56'611.1
2017-Oct-27 13:30N 37°33' W 026°49'511.1
2017-Oct-27 13:01N 37°33' W 026°42'611.1
2017-Oct-27 12:31N 37°33' W 026°35'611.3
2017-Oct-27 12:01N 37°33' W 026°28'611.5
2017-Oct-27 11:30N 37°33' W 026°21'611.5
2017-Oct-27 11:01N 37°33' W 026°14'611.6
2017-Oct-27 10:31N 37°33' W 026°06'611.5
2017-Oct-27 10:00N 37°33' W 025°59'611.5
2017-Oct-27 09:31N 37°33' W 025°52'611.3
2017-Oct-27 09:00N 37°32' W 025°45'611.6
2017-Oct-27 08:30N 37°32' W 025°37'611.8
2017-Oct-27 08:01N 37°32' W 025°30'611.5
2017-Oct-27 07:31N 37°32' W 025°23'611.5
2017-Oct-27 07:01N 37°32' W 025°16'612.0
2017-Oct-27 06:30N 37°32' W 025°08'612.0
2017-Oct-27 06:01N 37°32' W 025°01'612.1
2017-Oct-27 05:30N 37°32' W 024°53'611.7
2017-Oct-27 05:00N 37°32' W 024°46'611.6
2017-Oct-27 04:30N 37°32' W 024°38'611.8
2017-Oct-27 04:01N 37°32' W 024°31'612.1
2017-Oct-27 03:31N 37°32' W 024°23'612.0
2017-Oct-27 03:00N 37°31' W 024°16'612.0
2017-Oct-27 02:30N 37°31' W 024°08'  
Track history (hours):
 
Tides and Currents Weather Stations Pressure Air Temp Water Temp Dewpoint Dewpoint Depression Visibility Wind Speed Wind Dir Waves Ship Positions

Cape Texel

Last reported at 2017-Nov-06 02:27 UTC. Time now 2017-Nov-25 11:46 UTC.
Position N 25°39' W 079°31'.
Warning: this ship's position is 19 days out of date.

Length 228 m; draft 12.7 m.

Type: Tanker. MMSI: 538090383.

Date/timePositionNaut miles runAvg speedWind from/ knotsBaromVisibWave heightAir tempDewpointWater temp
2017-Nov-06 02:27N 25°39' W 079°31'910.7
2017-Nov-06 01:38N 25°48' W 079°30'1810.8
2017-Nov-05 23:57N 26°06' W 079°27'510.3
2017-Nov-05 23:30N 26°10' W 079°26'  
2017-Oct-28 01:35N 37°29' W 029°43'111.7
2017-Oct-28 01:30N 37°29' W 029°42'611.4
2017-Oct-28 01:00N 37°29' W 029°35'611.3
2017-Oct-28 00:30N 37°30' W 029°28'611.5
2017-Oct-28 00:00N 37°30' W 029°21'611.6
2017-Oct-27 23:30N 37°30' W 029°14'611.7
2017-Oct-27 23:00N 37°30' W 029°06'611.9
2017-Oct-27 22:31N 37°31' W 028°59'611.6
2017-Oct-27 22:00N 37°31' W 028°51'611.3
2017-Oct-27 21:30N 37°31' W 028°44'611.3
2017-Oct-27 21:00N 37°31' W 028°37'611.3
2017-Oct-27 20:31N 37°31' W 028°30'611.5
2017-Oct-27 20:00N 37°31' W 028°23'611.5
2017-Oct-27 19:30N 37°31' W 028°16'611.5
2017-Oct-27 19:00N 37°31' W 028°08'611.3
2017-Oct-27 18:30N 37°31' W 028°01'611.4
2017-Oct-27 18:00N 37°32' W 027°54'611.2
2017-Oct-27 17:30N 37°32' W 027°47'611.2
2017-Oct-27 17:00N 37°32' W 027°40'611.4
2017-Oct-27 16:30N 37°32' W 027°33'611.6
2017-Oct-27 16:00N 37°32' W 027°25'611.6
2017-Oct-27 15:29N 37°32' W 027°18'1411.5
2017-Oct-27 14:18N 37°32' W 027°00'311.2
2017-Oct-27 14:00N 37°32' W 026°56'611.1
2017-Oct-27 13:30N 37°33' W 026°49'511.1
2017-Oct-27 13:01N 37°33' W 026°42'611.1
2017-Oct-27 12:31N 37°33' W 026°35'611.3
2017-Oct-27 12:01N 37°33' W 026°28'611.5
2017-Oct-27 11:30N 37°33' W 026°21'611.5
2017-Oct-27 11:01N 37°33' W 026°14'611.6
2017-Oct-27 10:31N 37°33' W 026°06'611.5
2017-Oct-27 10:00N 37°33' W 025°59'611.5
2017-Oct-27 09:31N 37°33' W 025°52'611.3
2017-Oct-27 09:00N 37°32' W 025°45'611.6
2017-Oct-27 08:30N 37°32' W 025°37'611.8
2017-Oct-27 08:01N 37°32' W 025°30'611.5
2017-Oct-27 07:31N 37°32' W 025°23'611.5
2017-Oct-27 07:01N 37°32' W 025°16'612.0
2017-Oct-27 06:30N 37°32' W 025°08'612.0
2017-Oct-27 06:01N 37°32' W 025°01'612.1
2017-Oct-27 05:30N 37°32' W 024°53'611.7
2017-Oct-27 05:00N 37°32' W 024°46'611.6
2017-Oct-27 04:30N 37°32' W 024°38'611.8
2017-Oct-27 04:01N 37°32' W 024°31'612.1
2017-Oct-27 03:31N 37°32' W 024°23'612.0
2017-Oct-27 03:00N 37°31' W 024°16'612.0
2017-Oct-27 02:30N 37°31' W 024°08'  

Dump ship's entire track history